YQG weather

Windsor Airport
Windsor, Ontario, Canada

Public forecast

Using degrees Celsius for public forecast. Weather courtesy of forecast.io.

METAR (pilot weather report)

Retrieved 2019/04/25 13:00 UTC (1 hour ago):

CYQG 251300Z AUTO 13003KT 9SM OVC055 10/05 A2988 RMK SLP123

TAF (pilot weather forecast)

Retrieved 2019/04/25 12:42 UTC (1 hour ago):

TAF CYQG 251138Z 2512/2612 12005KT P6SM OVC080 FM251400 07006KT P6SM OVC040 FM251700 09008KT P6SM OVC025 FM252200 12010KT P6SM -SHRA OVC015 FM260100 09010KT 6SM -RA BR OVC008 FM260300 05012KT 21/2SM RA BR OVC004 RMK FCST BASED ON AUTO OBS. NXT FCST BY 251800Z